Byron, Maine
Current Conditions -  °F | °C
As of 8:52 AM on Wednesday 28 Jan 2015 (Local Time) from KBML Reporting Station
Overcast Overcast  
Wind Chill: -5°   Ceiling: 6000
Heat Index:   Visibility: 9mi
Dew Point: -2°   Wind: 9mph
Humidity: 64%   Direction: 320°NW
Pressure: 29.9"   Gusts: 17mph
Location:  44.7286°N, 70.6272°W
Report Text: KBML 281352Z AUTO 32008G15KT 290V360 9SM OVC060 M13/M19 A2990 RMK AO2 SLP152 T11331189
Loading
Personal Weather Stations






























Interactive Weather Map New forecast layout! Learn more

10-Day Weather Forecast

Advertisements
Track Severe Weather on mobile